• Join FlightAware (Why Join?)
  • Login
  • US Flag 
12:12AM EDT


 

Airport Tracker/Info


-or-


 

Live Flight TrackerFlight Track Log ✈ N550BF ✈ 10-Oct-2013 ✈ KASG - KTKI

Flight Track Log - Related Links

Times and Time Zones

All times are in EDT time to prevent confusion due to time zone crossing. See the N550BF flight status page for this flight to view local times or setup timezone preferences in your user account.

Time Position Orientation Groundspeed Altitude Reporting Facility
EDT Latitude Longitude Course Direction KTS MPH feet Rate Location/Type
07:19PM 35.9609 -94.3043 219° Southwest  Level Estimated
07:20PM 35.9249 -94.3350 214° Southwest  Level Estimated
07:21PM 35.8884 -94.3648 213° Southwest  Level FlightAware Approximate
07:22PM 35.8520 -94.3945 213° Southwest  Level FlightAware Approximate
07:23PM 35.8155 -94.4242 213° Southwest  Level FlightAware Approximate
07:24PM 35.7790 -94.4539 213° Southwest  Level FlightAware Approximate
07:25PM 35.7425 -94.4835 213° Southwest  Level FlightAware Approximate
07:26PM 35.7060 -94.5132 213° Southwest  Level FlightAware Approximate
07:27PM 35.6694 -94.5427 213° Southwest  Level FlightAware Approximate
07:28PM 35.6329 -94.5723 213° Southwest  Level FlightAware Approximate
07:29PM 35.5964 -94.6019 213° Southwest  Level FlightAware Approximate
07:30PM 35.5598 -94.6314 213° Southwest  Level FlightAware Approximate
07:31PM 35.5233 -94.6609 213° Southwest  Level FlightAware Approximate
07:32PM 35.4867 -94.6903 213° Southwest  Level FlightAware Approximate
07:33PM 35.4501 -94.7197 213° Southwest  Level FlightAware Approximate
07:34PM 35.4136 -94.7492 213° Southwest  Level FlightAware Approximate
07:35PM 35.3770 -94.7785 213° Southwest  Level FlightAware Approximate
07:35PM 35.3619 -94.7739 213° Southwest 174 200 12,000  Level Fort Worth Center
07:36PM 35.3404 -94.8079 213° Southwest  Level FlightAware Approximate
07:36PM 35.3228 -94.8056 213° Southwest 174 200 12,000  Level Fort Worth Center
07:37PM 35.3045 -94.8384 213° Southwest  Level Estimated
07:37PM 35.2881 -94.8322 212° Southwest 174 200 12,000  Level Fort Worth Center
07:38PM 35.2679 -94.8677 213° Southwest  Level FlightAware Approximate
07:38PM 35.2450 -94.8692 215° Southwest 174 200 12,000  Level Fort Worth Center
07:39PM 35.2313 -94.8970 213° Southwest  Level FlightAware Approximate
07:39PM 35.2058 -94.9033 215° Southwest 174 200 12,000  Level Fort Worth Center
07:40PM 35.1947 -94.9263 213° Southwest  Level FlightAware Approximate
07:40PM 35.1650 -94.9375 214° Southwest 174 200 12,000  Level Fort Worth Center
07:41PM 35.1300 -94.9639 212° Southwest 174 200 12,000  Level Fort Worth Center
07:42PM 35.0911 -94.9981 216° Southwest 174 200 12,000  Level Fort Worth Center
07:43PM 35.0500 -95.0322 214° Southwest 169 194 12,000  Level Fort Worth Center
07:44PM 35.0089 -95.0636 212° Southwest 169 194 12,000  Level Fort Worth Center
07:45PM 34.9697 -95.0953 214° Southwest 169 194 12,000  Level Fort Worth Center
07:46PM 34.9350 -95.1239 214° Southwest 174 200 12,000  Level Fort Worth Center
07:47PM 34.8939 -95.1581 214° Southwest 174 200 12,000  Level Fort Worth Center
07:48PM 34.8486 -95.1947 214° Southwest 174 200 12,000  Level Fort Worth Center
07:49PM 34.8094 -95.2261 213° Southwest 174 200 12,000  Level Fort Worth Center
07:50PM 34.7725 -95.2597 217° Southwest 174 200 12,000  Level Fort Worth Center
07:51PM 34.7333 -95.2836 207° Southwest 174 200 12,000  Level Fort Worth Center
07:52PM 34.6942 -95.3197 217° Southwest 174 200 12,000  Level Fort Worth Center
07:53PM 34.6550 -95.3511 213° Southwest 169 194 12,000  Level Fort Worth Center
07:54PM 34.6161 -95.3822 213° Southwest 169 194 12,000 -120 Level Fort Worth Center
07:55PM 34.5706 -95.4186 213° Southwest 180 207 11,800 -360 Descending Fort Worth Center
07:56PM 34.5314 -95.4472 211° Southwest 185 213 11,300 -540 Descending Fort Worth Center
07:57PM 34.4861 -95.4836 214° Southwest 193 222 10,800 -540 Descending Fort Worth Center
07:58PM 34.4428 -95.5200 215° Southwest 193 222 10,300 -420 Descending Fort Worth Center
07:59PM 34.3994 -95.5536 213° Southwest 188 216 10,000 -180 Descending Fort Worth Center
08:00PM 34.3625 -95.5844 215° Southwest 188 216 10,000  Level Fort Worth Center
08:01PM 34.3253 -95.6131 212° Southwest 183 211 10,000  Level Fort Worth Center
08:02PM 34.2861 -95.6439 213° Southwest 176 203 10,000  Level Fort Worth Center
08:03PM 34.2511 -95.6747 216° Southwest 171 197 10,000  Level Fort Worth Center
08:04PM 34.2119 -95.7033 211° Southwest 171 197 10,000  Level Fort Worth Center
08:05PM 34.1725 -95.7367 215° Southwest 166 191 10,000 -240 Level Fort Worth Center
08:06PM 34.1356 -95.7675 215° Southwest 166 191 9,600 -480 Descending Fort Worth Center
08:07PM 34.0961 -95.8008 215° Southwest 172 198 9,100 -600 Descending Fort Worth Center
08:08PM 34.0528 -95.8392 216° Southwest 177 204 8,500 -600 Descending Fort Worth Center
08:09PM 34.0117 -95.8750 216° Southwest 177 204 8,000 -300 Descending Fort Worth Center
08:10PM 33.9725 -95.9108 217° Southwest 177 204 8,000  Level Fort Worth Center
08:11PM 33.9372 -95.9439 218° Southwest 172 198 8,000  Level Fort Worth Center
08:12PM 33.8981 -95.9722 211° Southwest 172 198 8,000  Level Fort Worth Center
08:13PM 33.8628 -96.0053 218° Southwest 172 198 8,000  Level Fort Worth Center
08:14PM 33.8256 -96.0358 214° Southwest 172 198 8,000  Level Fort Worth Center
08:15PM 33.7925 -96.0664 218° Southwest 172 198 8,000  Level Fort Worth Center
08:16PM 33.7511 -96.0994 214° Southwest 172 198 8,000  Level Fort Worth Center
08:17PM 33.7181 -96.1300 218° Southwest 172 198 8,000  Level Fort Worth Center
08:18PM 33.6789 -96.1628 215° Southwest 172 198 8,000  Level Fort Worth Center
08:19PM 33.6456 -96.1908 215° Southwest 172 198 8,000  Level Fort Worth Center
08:20PM 33.6022 -96.2289 216° Southwest 172 198 8,000 -180 Level Fort Worth Center
08:21PM 33.5692 -96.2567 215° Southwest 172 198 7,700 -600 Descending Fort Worth Center
08:22PM 33.5214 -96.2972 215° Southwest 178 205 6,800 -900 Descending Fort Worth Center
08:23PM 33.4842 -96.3300 216° Southwest 185 213 6,000 -900 Descending Fort Worth Center
08:24PM 33.4386 -96.3681 215° Southwest 185 213 5,100 -840 Descending Fort Worth Center
08:25PM 33.4033 -96.3983 216° Southwest 191 220 4,400 -720 Descending Fort Worth Center
08:26PM 33.3667 -96.4167 203° Southwest 178 205 4,000 -300 Descending Dallas / Fort Worth TRACON
08:27PM 33.3333 -96.4500 220° Southwest 153 176 4,000 -360 Level Dallas / Fort Worth TRACON
08:28PM 33.3000 -96.4833 220° Southwest 164 189 3,300 -660 Descending Dallas / Fort Worth TRACON
08:29PM 33.2833 -96.5167 239° Southwest 149 171 2,700 -600 Descending Dallas / Fort Worth TRACON
08:30PM 33.2500 -96.5667 231° Southwest 140 161 2,200 -480 Descending Dallas / Fort Worth TRACON
08:31PM 33.2333 -96.5833 220° Southwest 81 93 1,700 -540 Descending Dallas / Fort Worth TRACON
08:32PM 33.2167 -96.5833 180° South 67 77 1,200 -180 Descending Dallas / Fort Worth TRACON
08:34PM 33.2128 -96.5892 231° Southwest 37 43 1,200 -120 Level Fort Worth Center
08:35PM 33.1981 -96.5892 180° South 47 54 900 -300 Descending Fort Worth Center